Terminal Aerodrome Forecast
Issued by NWS Charleston, SC

Home | Current Version | Previous Version | Text Only | Print | Product List | Glossary On
Versions: 1 2 3 4 5 6 7 8 9 10 11 12 13 14 15
817
FTUS42 KCHS 271121
TAFSAV
TAF
KSAV 271121Z 2712/2812 23004KT P6SM FEW250
     FM271700 24008KT P6SM SCT050
     FM280000 22005KT P6SM FEW250=

USA.gov is the U.S. government's official web portal to all federal, state and local government web resources and services.